createdAt,value
2022-08-11T01:32:04.214Z,2.88
2022-08-11T01:35:10.973Z,2.85
2022-08-11T01:38:22.883Z,3.00
2022-08-11T01:41:46.977Z,2.65
2022-08-11T01:44:38.146Z,2.90
2022-08-11T01:47:37.722Z,2.72
2022-08-11T01:50:36.634Z,3.00
2022-08-11T01:53:16.786Z,2.72
2022-08-11T01:55:55.090Z,2.90
2022-08-11T01:58:40.778Z,3.00
2022-08-11T02:01:24.802Z,2.90
2022-08-11T02:03:59.552Z,3.05
2022-08-11T02:06:57.096Z,2.80
2022-08-11T02:09:51.717Z,2.80
2022-08-11T02:12:32.119Z,2.92
2022-08-11T02:15:09.285Z,3.00
2022-08-11T02:17:54.777Z,2.97
2022-08-11T02:20:45.050Z,3.17
2022-08-11T02:24:04.127Z,2.97
2022-08-11T02:26:37.437Z,2.80
2022-08-11T02:29:16.671Z,2.85
2022-08-11T02:32:29.777Z,2.95
2022-08-11T02:35:06.017Z,2.80
2022-08-11T02:37:46.981Z,2.95
2022-08-11T02:40:31.179Z,2.85
2022-08-11T02:43:10.601Z,3.10
2022-08-11T02:45:55.453Z,2.92
2022-08-11T02:48:57.707Z,2.88
2022-08-11T02:51:34.443Z,2.80
2022-08-11T02:54:09.775Z,2.80
2022-08-11T02:56:52.119Z,2.80
2022-08-11T02:59:53.481Z,3.00
2022-08-11T03:02:31.533Z,2.80
2022-08-11T03:05:13.805Z,2.90
2022-08-11T03:08:00.117Z,2.80
2022-08-11T03:10:35.906Z,3.33
2022-08-11T03:13:33.261Z,3.03
2022-08-11T03:16:34.209Z,2.97
2022-08-11T03:19:12.962Z,2.78
2022-08-11T03:21:52.340Z,2.80
2022-08-11T03:24:50.741Z,2.80
2022-08-11T03:27:36.980Z,3.13
2022-08-11T03:30:14.465Z,3.03
2022-08-11T03:33:06.807Z,2.97
2022-08-11T03:35:41.119Z,3.10
2022-08-11T03:38:13.818Z,3.00
2022-08-11T03:42:03.887Z,2.97
2022-08-11T03:44:29.495Z,3.00
2022-08-11T03:47:16.107Z,2.88
2022-08-11T03:50:02.031Z,2.90
2022-08-11T03:52:43.886Z,3.08
2022-08-11T03:55:22.112Z,3.10
2022-08-11T03:58:41.852Z,3.10
2022-08-11T04:01:41.460Z,3.03
2022-08-11T04:04:51.387Z,2.90
2022-08-11T04:07:48.278Z,2.70
2022-08-11T04:11:00.020Z,3.08
2022-08-11T04:14:19.697Z,2.97
2022-08-11T04:16:54.201Z,2.95
2022-08-11T04:20:07.372Z,3.25
2022-08-11T04:23:03.569Z,3.10
2022-08-11T04:25:57.870Z,3.33
2022-08-11T04:28:51.032Z,3.00
2022-08-11T04:31:50.384Z,3.00
2022-08-11T04:34:45.986Z,3.00
2022-08-11T04:37:34.181Z,3.20
2022-08-11T04:40:19.170Z,2.90
2022-08-11T04:43:28.379Z,3.00
2022-08-11T04:46:13.610Z,2.90
2022-08-11T04:49:34.208Z,3.10
2022-08-11T04:52:37.896Z,3.17
2022-08-11T04:55:54.773Z,3.03
2022-08-11T04:58:46.450Z,3.53
2022-08-11T05:01:42.404Z,3.30
2022-08-11T05:04:43.146Z,3.10
2022-08-11T05:07:34.342Z,3.00
2022-08-11T05:10:20.387Z,3.03
2022-08-11T05:12:53.152Z,3.03
2022-08-11T05:15:51.499Z,3.00
2022-08-11T05:18:41.234Z,3.20
2022-08-11T05:21:30.505Z,3.40
2022-08-11T05:24:38.936Z,3.30
2022-08-11T05:27:27.377Z,3.17
2022-08-11T05:30:20.658Z,3.17
2022-08-11T05:33:16.701Z,3.33
2022-08-11T05:36:02.189Z,3.10
2022-08-11T05:38:53.173Z,3.20
2022-08-11T05:41:40.254Z,3.33
2022-08-11T05:44:25.961Z,3.17
2022-08-11T05:47:13.338Z,2.93
2022-08-11T05:49:59.902Z,2.90
2022-08-11T05:52:49.166Z,3.20
2022-08-11T05:56:01.676Z,3.00
2022-08-11T05:58:41.339Z,3.08
2022-08-11T06:01:10.568Z,2.97
2022-08-11T06:03:58.066Z,3.10
2022-08-11T06:06:29.142Z,2.93
2022-08-11T06:08:57.889Z,3.00
2022-08-11T06:11:44.183Z,3.00
2022-08-11T06:14:13.193Z,3.37
2022-08-11T06:16:43.098Z,3.10
2022-08-11T06:19:13.165Z,3.20
2022-08-11T06:21:46.289Z,2.72
2022-08-11T06:24:15.364Z,2.70
2022-08-11T06:27:11.272Z,2.72
2022-08-11T06:29:47.620Z,2.75
2022-08-11T06:32:17.202Z,2.70
2022-08-11T06:35:03.129Z,2.77
2022-08-11T06:37:43.438Z,2.85
2022-08-11T06:40:17.812Z,3.10
2022-08-11T06:42:53.086Z,2.88
2022-08-11T06:45:28.583Z,3.17
2022-08-11T06:48:00.807Z,2.78
2022-08-11T06:50:50.009Z,2.80
2022-08-11T06:53:20.657Z,2.80
2022-08-11T06:56:08.489Z,2.70
2022-08-11T06:58:56.685Z,2.88
2022-08-11T07:01:36.298Z,2.83
2022-08-11T07:04:08.211Z,2.72
2022-08-11T07:07:10.182Z,2.50
2022-08-11T07:10:37.401Z,2.60
2022-08-11T07:13:44.575Z,2.38
2022-08-11T07:16:15.605Z,3.00
2022-08-11T07:19:01.135Z,2.60
2022-08-11T07:22:01.159Z,2.63
2022-08-11T07:25:01.989Z,2.42
2022-08-11T07:27:53.711Z,2.63
2022-08-11T07:30:21.739Z,2.72
2022-08-11T07:32:53.467Z,3.00
2022-08-11T07:35:25.548Z,2.50
2022-08-11T07:38:02.209Z,2.70
2022-08-11T07:40:33.559Z,2.53
2022-08-11T07:43:02.028Z,2.75
2022-08-11T07:45:48.702Z,2.58
2022-08-11T07:48:34.936Z,2.30
2022-08-11T07:51:21.222Z,2.55
2022-08-11T07:53:58.619Z,2.50
2022-08-11T07:56:55.553Z,2.30
2022-08-11T08:00:00.006Z,2.55
2022-08-11T08:02:46.647Z,2.50
2022-08-11T08:05:33.982Z,2.75
2022-08-11T08:08:19.691Z,2.40
2022-08-11T08:11:05.554Z,2.42
2022-08-11T08:13:54.016Z,2.42
2022-08-11T08:16:39.795Z,2.47
2022-08-11T08:19:08.167Z,2.50
2022-08-11T08:21:35.934Z,2.53
2022-08-11T08:24:05.018Z,2.75
2022-08-11T08:26:52.291Z,2.58
2022-08-11T08:29:40.169Z,2.38
2022-08-11T08:32:11.134Z,2.40
2022-08-11T08:34:41.111Z,2.92
2022-08-11T08:37:16.295Z,2.75
2022-08-11T08:39:58.548Z,2.35
2022-08-11T08:42:29.511Z,2.58
2022-08-11T08:45:03.253Z,2.65
2022-08-11T08:47:43.009Z,2.65
2022-08-11T08:50:16.207Z,2.50
2022-08-11T08:52:51.404Z,2.58
2022-08-11T08:55:20.900Z,2.50
2022-08-11T08:57:52.559Z,2.42
2022-08-11T09:00:23.562Z,2.05
2022-08-11T09:02:53.054Z,2.60
2022-08-11T09:05:21.344Z,2.78
2022-08-11T09:07:53.166Z,2.78
2022-08-11T09:10:21.905Z,2.97
2022-08-11T09:12:51.573Z,2.72
2022-08-11T09:15:22.247Z,2.63
2022-08-11T09:17:56.167Z,2.95
2022-08-11T09:20:26.992Z,2.83
2022-08-11T09:24:06.852Z,2.80
2022-08-11T09:26:22.448Z,2.42
2022-08-11T09:28:59.935Z,2.70
2022-08-11T09:31:37.233Z,2.55
2022-08-11T09:34:10.896Z,2.60
2022-08-11T09:36:57.668Z,2.40
2022-08-11T09:39:40.575Z,2.50
2022-08-11T09:42:23.652Z,2.45
2022-08-11T09:44:53.183Z,2.50
2022-08-11T09:47:24.721Z,2.90
2022-08-11T09:50:00.130Z,2.40
2022-08-11T09:52:30.897Z,2.22
2022-08-11T09:54:59.040Z,2.55
2022-08-11T09:57:44.797Z,2.45
2022-08-11T10:00:15.426Z,2.47
2022-08-11T10:02:45.366Z,2.20
2022-08-11T10:05:35.958Z,2.10
2022-08-11T10:08:05.816Z,2.40
2022-08-11T10:10:38.648Z,2.30
2022-08-11T10:14:04.800Z,2.08
2022-08-11T10:16:14.514Z,2.00
2022-08-11T10:18:52.545Z,1.98
2022-08-11T10:21:30.259Z,1.90
2022-08-11T10:24:18.762Z,2.10
2022-08-11T10:26:58.882Z,2.10
2022-08-11T10:29:50.240Z,1.90
2022-08-11T10:32:57.545Z,1.90
2022-08-11T10:35:29.150Z,1.88
2022-08-11T10:38:07.949Z,2.28
2022-08-11T10:40:39.790Z,2.10
2022-08-11T10:43:13.599Z,2.10
2022-08-11T10:46:02.734Z,2.25
2022-08-11T10:48:32.966Z,2.00
2022-08-11T10:51:49.943Z,1.90
2022-08-11T10:54:24.828Z,2.10
2022-08-11T10:57:12.854Z,1.80
2022-08-11T10:59:42.995Z,1.90
2022-08-11T11:02:15.193Z,2.20
2022-08-11T11:04:59.137Z,1.90
2022-08-11T11:07:41.470Z,1.80
2022-08-11T11:10:13.847Z,1.90
2022-08-11T11:13:02.547Z,1.90
2022-08-11T11:15:49.954Z,2.00
2022-08-11T11:18:22.537Z,2.00
2022-08-11T11:20:57.675Z,1.80
2022-08-11T11:23:29.793Z,1.55
2022-08-11T11:26:30.927Z,1.85
2022-08-11T11:29:22.425Z,2.03
2022-08-11T11:32:00.303Z,1.80
2022-08-11T11:34:53.526Z,1.77
2022-08-11T11:37:23.758Z,1.67
2022-08-11T11:39:52.195Z,2.75
2022-08-11T11:42:22.660Z,1.75
2022-08-11T11:44:55.365Z,1.60
2022-08-11T11:47:24.625Z,2.00
2022-08-11T11:49:53.057Z,1.92
2022-08-11T11:52:22.713Z,1.80
2022-08-11T11:54:53.507Z,1.85
2022-08-11T11:57:41.236Z,1.90
2022-08-11T12:00:43.876Z,2.20
2022-08-11T12:03:12.487Z,2.00
2022-08-11T12:05:43.084Z,1.90
2022-08-11T12:08:16.035Z,1.95
2022-08-11T12:10:48.561Z,1.90
2022-08-11T12:13:37.518Z,1.73
2022-08-11T12:16:33.872Z,1.85
2022-08-11T12:18:57.444Z,2.35
2022-08-11T12:21:25.935Z,1.95
2022-08-11T12:24:13.515Z,2.40
2022-08-11T12:27:16.504Z,2.10
2022-08-11T12:29:55.142Z,2.00
2022-08-11T12:32:26.094Z,2.05
2022-08-11T12:34:57.679Z,1.80
2022-08-11T12:37:31.287Z,2.05
2022-08-11T12:40:43.608Z,2.08
2022-08-11T12:43:38.467Z,4.15
2022-08-11T12:46:11.489Z,2.20
2022-08-11T12:49:03.515Z,1.90
2022-08-11T12:52:14.012Z,2.20
2022-08-11T12:54:51.415Z,2.03
2022-08-11T12:57:44.231Z,1.75
2022-08-11T13:00:30.182Z,1.85
2022-08-11T13:03:17.827Z,1.98
2022-08-11T13:05:49.588Z,2.60
2022-08-11T13:08:18.224Z,2.00
2022-08-11T13:11:04.797Z,2.22
2022-08-11T13:13:54.256Z,2.05
2022-08-11T13:16:23.452Z,2.20
2022-08-11T13:18:53.789Z,2.00
2022-08-11T13:21:23.169Z,2.08
2022-08-11T13:24:01.032Z,2.05
2022-08-11T13:26:48.111Z,2.28
2022-08-11T13:29:23.552Z,2.10
2022-08-11T13:31:52.690Z,1.83
2022-08-11T13:34:23.950Z,2.13
2022-08-11T13:36:54.291Z,2.10
2022-08-11T13:39:24.377Z,2.30
2022-08-11T13:41:54.419Z,2.50
2022-08-11T13:44:25.822Z,2.20
2022-08-11T13:46:55.580Z,2.22
2022-08-11T13:49:25.424Z,2.03
2022-08-11T13:51:53.922Z,2.47
2022-08-11T13:54:25.220Z,2.40
2022-08-11T13:56:55.218Z,2.35
2022-08-11T13:59:29.766Z,2.55
2022-08-11T14:02:22.318Z,2.33
2022-08-11T14:04:56.351Z,2.05
2022-08-11T14:07:26.840Z,2.10
2022-08-11T14:10:01.982Z,2.58
2022-08-11T14:12:50.017Z,3.03
2022-08-11T14:15:21.478Z,2.40
2022-08-11T14:17:54.934Z,2.28
2022-08-11T14:20:40.481Z,2.22
2022-08-11T14:23:12.192Z,2.13
2022-08-11T14:26:03.743Z,2.15
2022-08-11T14:28:40.019Z,1.80
2022-08-11T14:31:12.898Z,2.20
2022-08-11T14:33:59.282Z,2.33
2022-08-11T14:36:34.150Z,2.40
2022-08-11T14:39:04.852Z,1.90
2022-08-11T14:42:11.672Z,1.92
2022-08-11T14:44:57.889Z,2.15
2022-08-11T14:47:27.610Z,2.38
2022-08-11T14:50:09.542Z,2.13
2022-08-11T14:52:45.712Z,2.38
2022-08-11T14:55:32.141Z,2.28
2022-08-11T14:58:01.750Z,2.45
2022-08-11T15:00:30.058Z,2.03
2022-08-11T15:03:10.918Z,2.00
2022-08-11T15:05:42.140Z,2.33
2022-08-11T15:08:42.026Z,2.63
2022-08-11T15:11:32.332Z,2.13
2022-08-11T15:14:02.829Z,1.98
2022-08-11T15:16:48.418Z,2.13
2022-08-11T15:19:20.939Z,2.50
2022-08-11T15:22:06.801Z,2.00
2022-08-11T15:24:37.305Z,2.03
2022-08-11T15:27:27.869Z,2.10
2022-08-11T15:30:29.859Z,2.13
2022-08-11T15:33:23.288Z,2.15
2022-08-11T15:36:09.716Z,2.00
2022-08-11T15:38:42.568Z,2.05
2022-08-11T15:41:33.516Z,2.10
2022-08-11T15:44:26.851Z,2.13
2022-08-11T15:47:09.597Z,1.90
2022-08-11T15:50:10.710Z,1.90
2022-08-11T15:52:33.879Z,2.10
2022-08-11T15:55:08.980Z,1.95
2022-08-11T15:57:58.097Z,2.10
2022-08-11T16:00:44.833Z,1.85
2022-08-11T16:03:54.381Z,1.92
2022-08-11T16:06:21.665Z,1.92
2022-08-11T16:08:53.980Z,2.10
2022-08-11T16:11:23.300Z,1.92
2022-08-11T16:14:11.760Z,1.90
2022-08-11T16:16:41.008Z,1.90
2022-08-11T16:19:10.890Z,2.10
2022-08-11T16:21:40.298Z,1.80
2022-08-11T16:27:01.302Z,1.92
2022-08-11T16:27:08.488Z,2.00
2022-08-11T16:29:44.640Z,1.67
2022-08-11T16:32:20.555Z,1.70
2022-08-11T16:35:11.381Z,1.90
2022-08-11T16:37:57.401Z,1.77
2022-08-11T16:40:25.957Z,1.52
2022-08-11T16:43:12.481Z,1.63
2022-08-11T16:46:00.445Z,2.20
2022-08-11T16:48:36.034Z,1.65
2022-08-11T16:51:05.243Z,2.00
2022-08-11T16:53:59.765Z,1.58
2022-08-11T16:56:25.459Z,1.48
2022-08-11T16:59:13.104Z,1.92
2022-08-11T17:01:43.851Z,1.80
2022-08-11T17:04:38.637Z,1.70
2022-08-11T17:07:42.433Z,1.70
2022-08-11T17:10:51.063Z,1.70
2022-08-11T17:13:26.963Z,1.70
2022-08-11T17:16:08.435Z,1.75
2022-08-11T17:18:44.085Z,1.60
2022-08-11T17:21:21.300Z,2.08
2022-08-11T17:23:51.772Z,1.88
2022-08-11T17:26:23.217Z,1.88
2022-08-11T17:28:56.239Z,1.92
2022-08-11T17:31:47.893Z,2.05
2022-08-11T17:34:34.713Z,2.05
2022-08-11T17:37:04.019Z,1.90
2022-08-11T17:39:33.449Z,2.10
2022-08-11T17:42:20.366Z,3.80
2022-08-11T17:45:07.290Z,2.50
2022-08-11T17:47:53.266Z,1.95
2022-08-11T17:50:23.343Z,2.20
2022-08-11T17:53:06.433Z,2.05
2022-08-11T17:55:53.895Z,1.80
2022-08-11T17:58:41.765Z,2.00
2022-08-11T18:01:12.100Z,2.20
2022-08-11T18:03:41.697Z,2.47
2022-08-11T18:06:33.956Z,2.20
2022-08-11T18:09:22.447Z,1.88
2022-08-11T18:12:12.221Z,2.10
2022-08-11T18:15:00.306Z,2.10
2022-08-11T18:17:45.494Z,2.10
2022-08-11T18:20:30.546Z,2.30
2022-08-11T18:23:21.770Z,2.28
2022-08-11T18:26:30.058Z,2.20
2022-08-11T18:29:17.553Z,2.30
2022-08-11T18:32:06.851Z,2.22
2022-08-11T18:34:56.557Z,2.88
2022-08-11T18:37:45.735Z,2.22
2022-08-11T18:40:37.750Z,2.55
2022-08-11T18:43:28.457Z,2.30
2022-08-11T18:46:19.381Z,2.40
2022-08-11T18:49:11.769Z,2.10
2022-08-11T18:52:03.678Z,2.50
2022-08-11T18:54:53.078Z,2.05
2022-08-11T18:57:49.788Z,2.20
2022-08-11T19:00:41.211Z,2.10
2022-08-11T19:03:30.195Z,2.13
2022-08-11T19:06:38.695Z,2.15
2022-08-11T19:09:28.945Z,2.70
2022-08-11T19:12:15.335Z,2.55
2022-08-11T19:15:03.886Z,2.10
2022-08-11T19:17:51.312Z,2.72
2022-08-11T19:20:39.476Z,2.58
2022-08-11T19:23:27.105Z,2.40
2022-08-11T19:26:12.609Z,2.33
2022-08-11T19:29:00.446Z,2.70
2022-08-11T19:31:48.332Z,2.67
2022-08-11T19:34:35.547Z,2.80
2022-08-11T19:37:24.714Z,2.58
2022-08-11T19:40:11.889Z,2.47
2022-08-11T19:42:59.062Z,2.03
2022-08-11T19:45:45.898Z,2.40
2022-08-11T19:48:40.778Z,2.53
2022-08-11T19:51:27.493Z,2.10
2022-08-11T19:54:13.812Z,2.33
2022-08-11T19:57:00.319Z,2.30
2022-08-11T19:59:46.224Z,1.92
2022-08-11T20:02:31.558Z,2.20
2022-08-11T20:05:18.722Z,2.25
2022-08-11T20:08:05.334Z,2.20
2022-08-11T20:10:52.067Z,2.40
2022-08-11T20:13:41.663Z,2.08
2022-08-11T20:16:29.640Z,2.30
2022-08-11T20:19:16.591Z,2.10
2022-08-11T20:22:08.234Z,1.98
2022-08-11T20:24:56.645Z,2.20
2022-08-11T20:27:43.655Z,2.20
2022-08-11T20:30:30.533Z,2.47
2022-08-11T20:33:16.667Z,2.20
2022-08-11T20:36:04.233Z,2.38
2022-08-11T20:38:51.945Z,2.10
2022-08-11T20:41:57.743Z,2.50
2022-08-11T20:44:46.337Z,2.17
2022-08-11T20:47:56.563Z,2.20
2022-08-11T20:50:41.123Z,2.03
2022-08-11T20:53:28.105Z,2.10
2022-08-11T20:56:17.509Z,1.90
2022-08-11T20:59:21.505Z,2.10
2022-08-11T21:02:10.058Z,2.30
2022-08-11T21:04:56.890Z,2.13
2022-08-11T21:07:55.424Z,2.20
2022-08-11T21:10:46.798Z,2.05
2022-08-11T21:13:37.178Z,2.40
2022-08-11T21:16:26.342Z,2.50
2022-08-11T21:19:54.696Z,2.30
2022-08-11T21:22:28.121Z,2.42
2022-08-11T21:25:16.171Z,2.40
2022-08-11T21:28:03.338Z,2.50
2022-08-11T21:30:51.372Z,2.58
2022-08-11T21:33:43.933Z,2.30
2022-08-11T21:36:29.461Z,2.92
2022-08-11T21:39:15.348Z,2.20
2022-08-11T21:42:00.471Z,2.58
2022-08-11T21:44:46.974Z,2.13
2022-08-11T21:47:43.003Z,2.50
2022-08-11T21:50:29.341Z,2.30
2022-08-11T21:53:16.190Z,2.65
2022-08-11T21:56:02.622Z,2.60
2022-08-11T21:58:49.189Z,2.90
2022-08-11T22:01:34.840Z,2.53
2022-08-11T22:04:23.292Z,2.45
2022-08-11T22:07:09.496Z,2.25
2022-08-11T22:09:54.838Z,2.30
2022-08-11T22:12:44.705Z,2.30
2022-08-11T22:15:31.494Z,2.50
2022-08-11T22:18:16.981Z,2.70
2022-08-11T22:21:03.949Z,2.92
2022-08-11T22:23:53.735Z,2.30
2022-08-11T22:26:41.271Z,2.83
2022-08-11T22:29:38.304Z,2.38
2022-08-11T22:32:32.314Z,2.45
2022-08-11T22:35:18.818Z,2.67
2022-08-11T22:38:06.860Z,2.70
2022-08-11T22:40:52.835Z,2.85
2022-08-11T22:43:38.379Z,2.50
2022-08-11T22:46:24.623Z,2.47
2022-08-11T22:49:11.446Z,2.67
2022-08-11T22:51:59.831Z,2.20
2022-08-11T22:54:47.317Z,2.50
2022-08-11T22:57:33.524Z,2.30
2022-08-11T23:00:20.471Z,2.35
2022-08-11T23:03:06.957Z,2.60
2022-08-11T23:05:56.893Z,2.55
2022-08-11T23:08:42.519Z,2.50
2022-08-11T23:11:55.292Z,2.45
2022-08-11T23:14:35.973Z,2.50
2022-08-11T23:17:20.998Z,2.55
2022-08-11T23:20:25.412Z,2.50
2022-08-11T23:23:13.703Z,3.00
2022-08-11T23:26:00.037Z,2.42
2022-08-11T23:28:50.515Z,2.60
2022-08-11T23:31:50.361Z,2.65
2022-08-11T23:35:02.950Z,2.72
2022-08-11T23:37:44.718Z,2.53
2022-08-11T23:40:30.352Z,2.42
2022-08-11T23:43:16.806Z,2.70
2022-08-11T23:46:03.511Z,2.70
2022-08-11T23:48:49.280Z,2.50
2022-08-11T23:51:40.746Z,2.60
2022-08-11T23:54:27.496Z,2.70
2022-08-11T23:57:13.287Z,2.50
2022-08-11T23:59:58.606Z,2.40
